createdAt,value
2022-08-07T00:02:36.574Z,101051.78
2022-08-07T00:08:38.512Z,101044.22
2022-08-07T00:11:13.052Z,101038.06
2022-08-07T00:13:48.177Z,101044.38
2022-08-07T00:16:17.688Z,101043.59
2022-08-07T00:18:58.293Z,101047.28
2022-08-07T00:21:55.354Z,101018.31
2022-08-07T00:24:20.337Z,101033.22
2022-08-07T00:27:06.505Z,101033.44
2022-08-07T00:29:37.174Z,101033.50
2022-08-07T00:32:06.788Z,101029.28
2022-08-07T00:34:35.593Z,101025.00
2022-08-07T00:37:05.096Z,101022.47
2022-08-07T00:39:36.371Z,101019.81
2022-08-07T00:42:16.221Z,101024.50
2022-08-07T00:44:44.466Z,101025.44
2022-08-07T00:47:15.795Z,101022.84
2022-08-07T00:50:19.612Z,101017.66
2022-08-07T00:52:51.672Z,101014.94
2022-08-07T00:55:25.309Z,101016.19
2022-08-07T00:58:13.989Z,101024.34
2022-08-07T01:00:53.601Z,101031.66
2022-08-07T01:03:25.457Z,101020.09
2022-08-07T01:06:12.247Z,101024.84
2022-08-07T01:08:43.090Z,101025.72
2022-08-07T01:12:28.076Z,101016.84
2022-08-07T01:14:16.550Z,101016.03
2022-08-07T01:16:48.102Z,101016.16
2022-08-07T01:19:22.087Z,101020.84
2022-08-07T01:21:56.167Z,101025.53
2022-08-07T01:24:35.018Z,101021.91
2022-08-07T01:27:03.967Z,101025.59
2022-08-07T01:29:34.258Z,101018.56
2022-08-07T01:32:12.288Z,101019.69
2022-08-07T01:34:47.425Z,101023.59
2022-08-07T01:37:21.852Z,101025.44
2022-08-07T01:39:53.151Z,101032.69
2022-08-07T01:42:37.604Z,101033.66
2022-08-07T01:45:10.108Z,101041.84
2022-08-07T01:48:20.438Z,101036.53
2022-08-07T01:50:37.829Z,101024.22
2022-08-07T01:53:11.710Z,101026.25
2022-08-07T01:55:56.613Z,101030.06
2022-08-07T01:58:33.429Z,101022.19
2022-08-07T02:01:58.798Z,101033.13
2022-08-07T02:04:08.629Z,101028.56
2022-08-07T02:06:44.065Z,101026.19
2022-08-07T02:09:52.429Z,101021.16
2022-08-07T02:12:18.176Z,101024.31
2022-08-07T02:14:58.313Z,101029.72
2022-08-07T02:17:37.281Z,101024.63
2022-08-07T02:20:17.415Z,101025.56
2022-08-07T02:22:57.626Z,101024.31
2022-08-07T02:26:31.202Z,101016.50
2022-08-07T02:28:25.763Z,101012.13
2022-08-07T02:31:06.124Z,101009.75
2022-08-07T02:34:03.294Z,101012.25
2022-08-07T02:36:41.461Z,101005.34
2022-08-07T02:39:43.610Z,101001.13
2022-08-07T02:42:10.218Z,100999.75
2022-08-07T02:44:48.274Z,101002.00
2022-08-07T02:47:23.542Z,101002.13
2022-08-07T02:50:00.512Z,100996.81
2022-08-07T02:52:38.719Z,101001.66
2022-08-07T02:55:28.653Z,100996.50
2022-08-07T02:58:07.544Z,100965.72
2022-08-07T03:00:47.062Z,100993.94
2022-08-07T03:03:22.632Z,100990.59
2022-08-07T03:05:55.453Z,100989.50
2022-08-07T03:08:27.003Z,100983.53
2022-08-07T03:11:02.391Z,100989.78
2022-08-07T03:13:49.761Z,100983.81
2022-08-07T03:16:27.670Z,100985.56
2022-08-07T03:18:58.156Z,100996.41
2022-08-07T03:21:27.435Z,100994.56
2022-08-07T03:24:19.528Z,100995.41
2022-08-07T03:26:58.276Z,100988.94
2022-08-07T03:29:36.841Z,100976.47
2022-08-07T03:32:12.988Z,100987.47
2022-08-07T03:34:47.561Z,100979.88
2022-08-07T03:37:37.477Z,100975.63
2022-08-07T03:40:17.409Z,100983.81
2022-08-07T03:42:46.791Z,100982.09
2022-08-07T03:45:29.865Z,100981.56
2022-08-07T03:48:09.993Z,100975.38
2022-08-07T03:50:52.096Z,100995.06
2022-08-07T03:54:00.526Z,100986.06
2022-08-07T03:56:32.560Z,100983.44
2022-08-07T03:59:09.243Z,100990.84
2022-08-07T04:01:45.816Z,100988.25
2022-08-07T04:04:18.026Z,100993.31
2022-08-07T04:06:51.816Z,100990.69
2022-08-07T04:09:24.402Z,100993.38
2022-08-07T04:12:26.487Z,101001.44
2022-08-07T04:14:49.108Z,100990.81
2022-08-07T04:17:22.381Z,100993.63
2022-08-07T04:19:55.153Z,100991.50
2022-08-07T04:22:29.952Z,100996.06
2022-08-07T04:25:08.809Z,100997.06
2022-08-07T04:27:59.310Z,100998.00
2022-08-07T04:30:39.473Z,101004.13
2022-08-07T04:33:27.801Z,100994.38
2022-08-07T04:35:57.904Z,101002.47
2022-08-07T04:38:29.583Z,101005.13
2022-08-07T04:40:59.909Z,101007.69
2022-08-07T04:44:10.266Z,101006.72
2022-08-07T04:47:04.800Z,101012.09
2022-08-07T04:49:57.416Z,101020.91
2022-08-07T04:52:35.310Z,101026.16
2022-08-07T04:55:15.261Z,101011.94
2022-08-07T04:58:33.727Z,101019.69
2022-08-07T05:01:13.548Z,101025.63
2022-08-07T05:04:07.951Z,101021.75
2022-08-07T05:09:43.402Z,101026.63
2022-08-07T05:12:27.008Z,101025.47
2022-08-07T05:15:16.006Z,101034.66
2022-08-07T05:18:00.857Z,101031.91
2022-08-07T05:20:35.974Z,101028.13
2022-08-07T05:23:15.807Z,101021.88
2022-08-07T05:26:11.884Z,101033.22
2022-08-07T05:28:40.458Z,101033.28
2022-08-07T05:31:14.535Z,101035.53
2022-08-07T05:34:00.950Z,101033.47
2022-08-07T05:36:39.233Z,101039.06
2022-08-07T05:40:13.759Z,101039.81
2022-08-07T05:42:12.292Z,101049.63
2022-08-07T05:45:04.249Z,101043.91
2022-08-07T05:47:38.529Z,101046.91
2022-08-07T05:50:26.039Z,101049.22
2022-08-07T05:52:56.107Z,101042.09
2022-08-07T05:56:01.864Z,101047.59
2022-08-07T05:58:22.094Z,101049.53
2022-08-07T06:01:11.561Z,101056.09
2022-08-07T06:03:56.769Z,101056.19
2022-08-07T06:06:29.893Z,101052.84
2022-08-07T06:09:04.800Z,101050.13
2022-08-07T06:11:38.392Z,101064.75
2022-08-07T06:14:13.740Z,101062.00
2022-08-07T06:16:56.429Z,101064.19
2022-08-07T06:19:57.880Z,101059.34
2022-08-07T06:22:28.203Z,101061.03
2022-08-07T06:25:12.403Z,101060.44
2022-08-07T06:27:44.288Z,101058.41
2022-08-07T06:30:35.607Z,101052.28
2022-08-07T06:33:19.915Z,101060.00
2022-08-07T06:36:12.061Z,101051.03
2022-08-07T06:38:58.469Z,101065.75
2022-08-07T06:42:00.408Z,101055.50
2022-08-07T06:44:50.918Z,101057.44
2022-08-07T06:47:21.394Z,101059.59
2022-08-07T06:49:58.284Z,101056.22
2022-08-07T06:52:37.028Z,101051.75
2022-08-07T06:55:34.102Z,101047.28
2022-08-07T06:58:11.341Z,101045.66
2022-08-07T07:00:53.066Z,101042.41
2022-08-07T07:03:26.370Z,101048.19
2022-08-07T07:06:11.280Z,101057.22
2022-08-07T07:08:46.629Z,101047.44
2022-08-07T07:12:08.338Z,101040.66
2022-08-07T07:14:08.266Z,101048.34
2022-08-07T07:16:49.522Z,101055.72
2022-08-07T07:19:55.755Z,101055.19
2022-08-07T07:22:36.513Z,101046.69
2022-08-07T07:26:33.096Z,101043.84
2022-08-07T07:28:03.258Z,101042.44
2022-08-07T07:30:40.142Z,101035.94
2022-08-07T07:33:14.452Z,101046.00
2022-08-07T07:36:04.819Z,101051.22
2022-08-07T07:38:36.112Z,101030.47
2022-08-07T07:41:09.210Z,101040.00
2022-08-07T07:44:13.652Z,101047.75
2022-08-07T07:46:37.238Z,101043.09
2022-08-07T07:50:36.370Z,101033.94
2022-08-07T07:52:17.198Z,101034.88
2022-08-07T07:54:50.611Z,101035.53
2022-08-07T07:57:43.926Z,101036.88
2022-08-07T08:00:29.201Z,101035.06
2022-08-07T08:03:06.905Z,101032.78
2022-08-07T08:05:54.749Z,101031.56
2022-08-07T08:08:34.528Z,101030.00
2022-08-07T08:11:08.197Z,101031.94
2022-08-07T08:13:52.910Z,101032.94
2022-08-07T08:16:24.963Z,101029.38
2022-08-07T08:18:57.578Z,101035.41
2022-08-07T08:21:55.800Z,101030.47
2022-08-07T08:25:04.552Z,101025.75
2022-08-07T08:27:56.475Z,101032.06
2022-08-07T08:30:32.163Z,101034.16
2022-08-07T08:33:15.042Z,101033.09
2022-08-07T08:35:50.660Z,101035.81
2022-08-07T08:38:29.965Z,101027.94
2022-08-07T08:41:09.233Z,101027.91
2022-08-07T08:43:56.199Z,101035.16
2022-08-07T08:46:38.372Z,101032.47
2022-08-07T08:49:32.832Z,101024.13
2022-08-07T08:52:14.495Z,101020.91
2022-08-07T08:54:50.995Z,101019.63
2022-08-07T08:57:33.914Z,101015.94
2022-08-07T09:00:06.855Z,101022.63
2022-08-07T09:02:46.174Z,101019.72
2022-08-07T09:05:36.827Z,101014.56
2022-08-07T09:08:28.085Z,101018.47
2022-08-07T09:11:05.537Z,101020.41
2022-08-07T09:13:51.991Z,101015.41
2022-08-07T09:16:30.522Z,101006.81
2022-08-07T09:19:51.533Z,101005.25
2022-08-07T09:24:32.713Z,101011.81
2022-08-07T09:25:24.390Z,101000.59
2022-08-07T09:28:02.961Z,101002.66
2022-08-07T09:30:49.703Z,101002.50
2022-08-07T09:33:52.614Z,100999.38
2022-08-07T09:36:35.380Z,101001.94
2022-08-07T09:39:53.206Z,100996.03
2022-08-07T09:42:29.298Z,100993.28
2022-08-07T09:47:24.425Z,100988.00
2022-08-07T09:48:19.566Z,100993.91
2022-08-07T09:51:01.078Z,100982.81
2022-08-07T09:53:41.353Z,100982.41
2022-08-07T09:56:51.424Z,100974.97
2022-08-07T10:00:01.174Z,100960.44
2022-08-07T10:04:06.153Z,100957.31
2022-08-07T10:06:24.552Z,100958.75
2022-08-07T10:11:59.904Z,100945.31
2022-08-07T10:14:00.862Z,100942.03
2022-08-07T10:17:02.047Z,100943.78
2022-08-07T10:19:53.903Z,100940.75
2022-08-07T10:22:45.395Z,100937.28
2022-08-07T10:25:47.692Z,100925.16
2022-08-07T10:28:39.550Z,100925.50
2022-08-07T10:31:39.033Z,100920.00
2022-08-07T10:34:45.137Z,100919.69
2022-08-07T10:38:00.236Z,100916.72
2022-08-07T10:40:22.822Z,100908.59
2022-08-07T10:43:08.184Z,100908.69
2022-08-07T10:45:57.483Z,100905.00
2022-08-07T10:48:48.543Z,100909.09
2022-08-07T10:51:39.265Z,100901.59
2022-08-07T10:54:17.355Z,100903.34
2022-08-07T10:57:00.081Z,100902.34
2022-08-07T10:59:47.524Z,100900.00
2022-08-07T11:02:32.843Z,100885.69
2022-08-07T11:05:20.317Z,100883.16
2022-08-07T11:08:02.599Z,100885.63
2022-08-07T11:10:41.820Z,100887.03
2022-08-07T11:14:45.418Z,100866.16
2022-08-07T11:16:16.401Z,100870.41
2022-08-07T11:18:52.186Z,100869.56
2022-08-07T11:21:32.104Z,100865.28
2022-08-07T11:24:08.383Z,100858.50
2022-08-07T11:26:48.107Z,100844.28
2022-08-07T11:29:42.818Z,100856.41
2022-08-07T11:32:25.271Z,100858.38
2022-08-07T11:34:58.391Z,100848.00
2022-08-07T11:37:57.284Z,100847.81
2022-08-07T11:40:37.117Z,100851.03
2022-08-07T11:43:15.586Z,100843.56
2022-08-07T11:46:00.910Z,100841.16
2022-08-07T11:49:04.392Z,100842.97
2022-08-07T11:51:48.714Z,100835.56
2022-08-07T11:54:53.057Z,100838.47
2022-08-07T11:58:00.253Z,100828.75
2022-08-07T12:00:34.014Z,100825.44
2022-08-07T12:03:41.554Z,100821.22
2022-08-07T12:06:51.781Z,100821.19
2022-08-07T12:09:34.595Z,100825.06
2022-08-07T12:12:09.144Z,100821.91
2022-08-07T12:14:55.360Z,100828.34
2022-08-07T12:17:39.461Z,100808.59
2022-08-07T12:20:29.635Z,100827.41
2022-08-07T12:24:05.687Z,100818.88
2022-08-07T12:26:23.318Z,100818.28
2022-08-07T12:29:05.519Z,100799.78
2022-08-07T12:32:02.220Z,100805.19
2022-08-07T12:34:35.393Z,100802.34
2022-08-07T12:37:16.956Z,100804.66
2022-08-07T12:39:59.001Z,100798.81
2022-08-07T12:42:32.164Z,100799.72
2022-08-07T12:45:04.354Z,100791.88
2022-08-07T12:47:43.961Z,100794.16
2022-08-07T12:50:39.315Z,100788.28
2022-08-07T12:53:22.166Z,100784.13
2022-08-07T12:56:02.546Z,100786.09
2022-08-07T12:58:39.699Z,100788.22
2022-08-07T13:01:19.384Z,100783.94
2022-08-07T13:04:13.675Z,100785.50
2022-08-07T13:07:17.928Z,100786.22
2022-08-07T13:10:37.867Z,100782.38
2022-08-07T13:13:47.901Z,100785.09
2022-08-07T13:16:17.652Z,100777.72
2022-08-07T13:18:54.852Z,100772.00
2022-08-07T13:21:50.303Z,100780.84
2022-08-07T13:24:25.813Z,100765.84
2022-08-07T13:27:05.876Z,100769.63
2022-08-07T13:29:46.973Z,100772.16
2022-08-07T13:32:31.652Z,100760.25
2022-08-07T13:35:08.435Z,100762.09
2022-08-07T13:37:55.341Z,100755.75
2022-08-07T13:40:36.761Z,100759.78
2022-08-07T13:43:15.065Z,100758.03
2022-08-07T13:46:11.755Z,100750.13
2022-08-07T13:48:39.035Z,100755.53
2022-08-07T13:51:27.139Z,100754.19
2022-08-07T13:54:02.118Z,100744.53
2022-08-07T13:56:35.775Z,100743.34
2022-08-07T13:59:13.455Z,100733.44
2022-08-07T14:02:03.956Z,100738.81
2022-08-07T14:04:48.888Z,100730.97
2022-08-07T14:07:25.101Z,100733.09
2022-08-07T14:10:21.802Z,100734.94
2022-08-07T14:12:56.079Z,100725.00
2022-08-07T14:15:35.342Z,100725.50
2022-08-07T14:18:23.917Z,100725.44
2022-08-07T14:21:20.665Z,100729.13
2022-08-07T14:24:06.725Z,100722.47
2022-08-07T14:26:50.580Z,100731.88
2022-08-07T14:30:07.714Z,100712.69
2022-08-07T14:32:14.093Z,100717.19
2022-08-07T14:34:47.162Z,100711.81
2022-08-07T14:37:19.535Z,100711.16
2022-08-07T14:40:17.800Z,100704.19
2022-08-07T14:43:54.962Z,100702.16
2022-08-07T14:45:50.588Z,100700.97
2022-08-07T14:48:27.872Z,100704.81
2022-08-07T14:51:15.649Z,100705.91
2022-08-07T14:56:42.599Z,100689.00
2022-08-07T15:00:03.207Z,100689.00
2022-08-07T15:02:34.124Z,100690.88
2022-08-07T15:05:04.005Z,100689.75
2022-08-07T15:14:34.251Z,100680.81
2022-08-07T15:17:32.450Z,100676.66
2022-08-07T15:20:31.900Z,100678.97
2022-08-07T15:22:59.500Z,100678.25
2022-08-07T15:25:51.491Z,100674.00
2022-08-07T15:28:34.697Z,100680.03
2022-08-07T15:31:07.358Z,100675.66
2022-08-07T15:33:39.404Z,100675.09
2022-08-07T15:36:12.630Z,100675.03
2022-08-07T15:38:59.390Z,100671.81
2022-08-07T15:42:42.320Z,100673.47
2022-08-07T15:44:24.171Z,100662.66
2022-08-07T15:46:58.651Z,100654.34
2022-08-07T15:50:03.964Z,100652.56
2022-08-07T15:52:30.448Z,100656.00
2022-08-07T15:55:04.452Z,100649.25
2022-08-07T15:57:48.400Z,100639.56
2022-08-07T16:00:33.405Z,100648.47
2022-08-07T16:03:08.489Z,100644.09
2022-08-07T16:05:52.142Z,100650.09
2022-08-07T16:08:32.438Z,100646.59
2022-08-07T16:11:26.844Z,100650.66
2022-08-07T16:14:19.154Z,100641.19
2022-08-07T16:17:15.228Z,100640.88
2022-08-07T16:20:34.161Z,100641.81
2022-08-07T16:23:54.719Z,100633.69
2022-08-07T16:26:58.847Z,100636.81
2022-08-07T16:30:10.357Z,100637.75
2022-08-07T16:32:46.564Z,100631.47
2022-08-07T16:35:56.698Z,100626.25
2022-08-07T16:39:00.566Z,100617.25
2022-08-07T16:41:58.263Z,100637.53
2022-08-07T16:45:14.648Z,100635.63
2022-08-07T16:48:17.036Z,100641.28
2022-08-07T16:51:51.754Z,100634.88
2022-08-07T16:54:33.112Z,100640.88
2022-08-07T16:57:15.418Z,100637.56
2022-08-07T16:59:51.781Z,100635.63
2022-08-07T17:02:53.004Z,100637.28
2022-08-07T17:06:26.544Z,100642.28
2022-08-07T17:09:08.573Z,100643.44
2022-08-07T17:12:04.874Z,100630.72
2022-08-07T17:14:36.115Z,100635.50
2022-08-07T17:17:15.224Z,100627.03
2022-08-07T17:20:02.655Z,100624.59
2022-08-07T17:22:46.680Z,100625.59
2022-08-07T17:25:19.422Z,100628.09
2022-08-07T17:27:59.785Z,100633.59
2022-08-07T17:30:36.573Z,100641.22
2022-08-07T17:34:10.311Z,100648.44
2022-08-07T17:36:21.281Z,100640.94
2022-08-07T17:39:10.463Z,100641.41
2022-08-07T17:42:03.415Z,100641.69
2022-08-07T17:44:49.955Z,100646.47
2022-08-07T17:47:38.486Z,100647.34
2022-08-07T17:50:19.288Z,100647.63
2022-08-07T17:52:53.534Z,100640.72
2022-08-07T17:56:00.902Z,100645.34
2022-08-07T17:58:30.694Z,100648.78
2022-08-07T18:01:20.942Z,100651.09
2022-08-07T18:04:16.051Z,100652.41
2022-08-07T18:07:19.221Z,100656.13
2022-08-07T18:10:04.326Z,100662.16
2022-08-07T18:12:49.448Z,100661.28
2022-08-07T18:15:24.322Z,100666.59
2022-08-07T18:18:46.422Z,100668.03
2022-08-07T18:21:27.453Z,100667.72
2022-08-07T18:24:07.320Z,100664.56
2022-08-07T18:26:59.283Z,100669.72
2022-08-07T18:30:06.736Z,100673.44
2022-08-07T18:33:17.106Z,100681.03
2022-08-07T18:35:55.814Z,100678.69
2022-08-07T18:38:57.834Z,100677.78
2022-08-07T18:41:44.832Z,100671.56
2022-08-07T18:44:32.572Z,100684.75
2022-08-07T18:47:21.192Z,100680.53
2022-08-07T18:50:31.746Z,100690.03
2022-08-07T18:53:14.671Z,100688.91
2022-08-07T18:55:57.684Z,100683.41
2022-08-07T18:58:51.855Z,100693.25
2022-08-07T19:02:31.780Z,100687.44
2022-08-07T19:04:57.790Z,100697.00
2022-08-07T19:07:35.028Z,100692.00
2022-08-07T19:10:18.224Z,100699.09
2022-08-07T19:13:10.240Z,100705.38
2022-08-07T19:16:04.612Z,100710.22
2022-08-07T19:18:46.483Z,100714.44
2022-08-07T19:21:43.932Z,100712.34
2022-08-07T19:24:31.043Z,100715.34
2022-08-07T19:28:57.030Z,100727.47
2022-08-07T19:31:03.258Z,100734.91
2022-08-07T19:32:51.277Z,100731.41
2022-08-07T19:35:24.522Z,100741.81
2022-08-07T19:38:04.558Z,100740.69
2022-08-07T19:40:49.280Z,100743.56
2022-08-07T19:43:50.029Z,100742.91
2022-08-07T19:46:17.842Z,100753.41
2022-08-07T19:48:54.063Z,100756.75
2022-08-07T19:51:52.782Z,100755.38
2022-08-07T19:54:44.031Z,100752.75
2022-08-07T19:58:00.140Z,100759.25
2022-08-07T20:00:03.532Z,100756.81
2022-08-07T20:02:52.152Z,100759.00
2022-08-07T20:05:28.682Z,100757.53
2022-08-07T20:08:00.595Z,100764.97
2022-08-07T20:12:43.001Z,100766.16
2022-08-07T20:15:22.090Z,100766.31
2022-08-07T20:18:01.808Z,100755.91
2022-08-07T20:20:35.936Z,100766.66
2022-08-07T20:23:23.434Z,100773.34
2022-08-07T20:26:09.972Z,100774.47
2022-08-07T20:28:42.586Z,100771.34
2022-08-07T20:31:21.474Z,100785.28
2022-08-07T20:33:56.386Z,100779.09
2022-08-07T20:36:28.342Z,100770.03
2022-08-07T20:39:00.404Z,100787.00
2022-08-07T20:41:38.435Z,100787.88
2022-08-07T20:44:13.019Z,100788.72
2022-08-07T20:46:44.845Z,100779.28
2022-08-07T20:49:58.181Z,100772.22
2022-08-07T20:52:13.799Z,100769.00
2022-08-07T20:54:53.056Z,100771.66
2022-08-07T20:57:25.779Z,100771.41
2022-08-07T21:00:07.581Z,100774.78
2022-08-07T21:03:04.556Z,100774.38
2022-08-07T21:05:52.837Z,100772.25
2022-08-07T21:08:34.989Z,100764.31
2022-08-07T21:11:11.951Z,100766.84
2022-08-07T21:14:20.243Z,100766.22
2022-08-07T21:16:56.559Z,100761.44
2022-08-07T21:19:32.552Z,100760.56
2022-08-07T21:22:19.988Z,100746.56
2022-08-07T21:25:04.829Z,100756.00
2022-08-07T21:27:53.769Z,100760.09
2022-08-07T21:30:30.540Z,100754.34
2022-08-07T21:33:12.969Z,100756.84
2022-08-07T21:36:05.133Z,100756.63
2022-08-07T21:38:44.600Z,100758.66
2022-08-07T21:41:20.689Z,100762.78
2022-08-07T21:43:56.044Z,100751.53
2022-08-07T21:46:33.223Z,100759.00
2022-08-07T21:49:15.071Z,100751.41
2022-08-07T21:51:58.863Z,100735.78
2022-08-07T21:54:48.206Z,100758.22
2022-08-07T21:57:44.590Z,100758.75
2022-08-07T22:00:22.905Z,100762.53
2022-08-07T22:03:03.640Z,100758.59
2022-08-07T22:05:48.115Z,100761.84
2022-08-07T22:08:20.976Z,100757.59
2022-08-07T22:10:55.297Z,100755.50
2022-08-07T22:13:50.532Z,100759.13
2022-08-07T22:16:42.361Z,100765.91
2022-08-07T22:19:18.180Z,100757.56
2022-08-07T22:22:04.911Z,100764.81
2022-08-07T22:24:55.554Z,100769.44
2022-08-07T22:28:03.197Z,100765.19
2022-08-07T22:30:22.003Z,100764.13
2022-08-07T22:33:03.769Z,100762.47
2022-08-07T22:35:41.362Z,100765.78
2022-08-07T22:38:26.084Z,100769.56
2022-08-07T22:41:02.839Z,100778.94
2022-08-07T22:43:39.759Z,100770.06
2022-08-07T22:47:02.244Z,100763.22
2022-08-07T22:49:54.238Z,100774.31
2022-08-07T22:52:51.340Z,100773.97
2022-08-07T22:55:34.234Z,100769.91
2022-08-07T22:58:38.174Z,100779.69
2022-08-07T23:01:26.987Z,100774.34
2022-08-07T23:04:30.668Z,100774.25
2022-08-07T23:07:30.156Z,100771.06
2022-08-07T23:10:36.450Z,100775.41
2022-08-07T23:13:29.369Z,100775.91
2022-08-07T23:16:48.267Z,100770.59
2022-08-07T23:19:16.456Z,100769.16
2022-08-07T23:21:57.338Z,100772.72
2022-08-07T23:24:43.639Z,100774.25
2022-08-07T23:27:34.504Z,100773.97
2022-08-07T23:30:39.126Z,100777.66
2022-08-07T23:34:34.063Z,100769.81
2022-08-07T23:36:08.686Z,100770.63
2022-08-07T23:38:57.495Z,100773.13
2022-08-07T23:42:01.417Z,100770.63
2022-08-07T23:44:45.405Z,100769.38
2022-08-07T23:47:46.794Z,100771.28
2022-08-07T23:50:36.682Z,100772.34
2022-08-07T23:53:51.477Z,100768.88
2022-08-07T23:56:31.149Z,100768.06
